sensor_id;sensor_type;location;lat;lon;timestamp;temperature;humidity
24103;DHT22;12278;53.058;9.028;2023-08-31T00:03:19;12.80;99.90
24103;DHT22;12278;53.058;9.028;2023-08-31T00:07:21;12.80;99.90
24103;DHT22;12278;53.058;9.028;2023-08-31T00:11:22;12.70;99.90
24103;DHT22;12278;53.058;9.028;2023-08-31T00:15:23;12.70;99.90
24103;DHT22;12278;53.058;9.028;2023-08-31T00:19:24;12.70;99.90
24103;DHT22;12278;53.058;9.028;2023-08-31T00:23:25;12.60;99.90
24103;DHT22;12278;53.058;9.028;2023-08-31T00:27:25;12.60;99.90
24103;DHT22;12278;53.058;9.028;2023-08-31T00:31:26;12.60;99.90
24103;DHT22;12278;53.058;9.028;2023-08-31T00:35:28;12.50;99.90
24103;DHT22;12278;53.058;9.028;2023-08-31T00:39:28;12.40;99.90
24103;DHT22;12278;53.058;9.028;2023-08-31T00:43:29;12.30;99.90
24103;DHT22;12278;53.058;9.028;2023-08-31T00:47:30;12.30;99.90
24103;DHT22;12278;53.058;9.028;2023-08-31T00:51:30;12.30;99.90
24103;DHT22;12278;53.058;9.028;2023-08-31T00:55:31;12.20;99.90
24103;DHT22;12278;53.058;9.028;2023-08-31T00:59:32;12.20;99.90
24103;DHT22;12278;53.058;9.028;2023-08-31T01:13:02;12.10;99.90
24103;DHT22;12278;53.058;9.028;2023-08-31T01:17:04;12.00;99.90
24103;DHT22;12278;53.058;9.028;2023-08-31T01:21:30;12.00;99.90
24103;DHT22;12278;53.058;9.028;2023-08-31T01:25:35;12.00;99.90
24103;DHT22;12278;53.058;9.028;2023-08-31T01:29:37;12.00;99.90
24103;DHT22;12278;53.058;9.028;2023-08-31T01:33:38;11.80;99.90
24103;DHT22;12278;53.058;9.028;2023-08-31T01:37:52;11.70;99.90
24103;DHT22;12278;53.058;9.028;2023-08-31T01:41:57;11.80;99.90
24103;DHT22;12278;53.058;9.028;2023-08-31T01:45:58;11.70;99.90
24103;DHT22;12278;53.058;9.028;2023-08-31T01:49:59;11.70;99.90
24103;DHT22;12278;53.058;9.028;2023-08-31T01:54:00;11.70;99.90
24103;DHT22;12278;53.058;9.028;2023-08-31T01:58:00;11.70;99.90
24103;DHT22;12278;53.058;9.028;2023-08-31T02:02:01;11.60;99.90
24103;DHT22;12278;53.058;9.028;2023-08-31T02:06:02;11.60;99.90
24103;DHT22;12278;53.058;9.028;2023-08-31T02:10:04;11.50;99.90
24103;DHT22;12278;53.058;9.028;2023-08-31T02:14:06;11.50;99.90
24103;DHT22;12278;53.058;9.028;2023-08-31T02:18:08;11.50;99.90
24103;DHT22;12278;53.058;9.028;2023-08-31T02:22:09;11.50;99.90
24103;DHT22;12278;53.058;9.028;2023-08-31T02:26:11;11.50;99.90
24103;DHT22;12278;53.058;9.028;2023-08-31T02:30:12;11.50;99.90
24103;DHT22;12278;53.058;9.028;2023-08-31T02:34:12;11.50;99.90
24103;DHT22;12278;53.058;9.028;2023-08-31T02:38:13;11.40;99.90
24103;DHT22;12278;53.058;9.028;2023-08-31T02:42:14;11.40;99.90
24103;DHT22;12278;53.058;9.028;2023-08-31T02:46:15;11.40;99.90
24103;DHT22;12278;53.058;9.028;2023-08-31T02:50:15;11.50;99.90
24103;DHT22;12278;53.058;9.028;2023-08-31T02:54:16;11.40;99.90
24103;DHT22;12278;53.058;9.028;2023-08-31T02:58:17;11.30;99.90
24103;DHT22;12278;53.058;9.028;2023-08-31T03:02:18;11.40;99.90
24103;DHT22;12278;53.058;9.028;2023-08-31T03:06:18;11.30;99.90
24103;DHT22;12278;53.058;9.028;2023-08-31T03:10:21;11.30;99.90
24103;DHT22;12278;53.058;9.028;2023-08-31T03:14:22;11.20;99.90
24103;DHT22;12278;53.058;9.028;2023-08-31T03:18:23;11.30;99.90
24103;DHT22;12278;53.058;9.028;2023-08-31T03:22:24;11.20;99.90
24103;DHT22;12278;53.058;9.028;2023-08-31T03:26:24;11.10;99.90
24103;DHT22;12278;53.058;9.028;2023-08-31T03:30:25;11.20;99.90
24103;DHT22;12278;53.058;9.028;2023-08-31T03:34:32;11.20;99.90
24103;DHT22;12278;53.058;9.028;2023-08-31T03:38:33;11.10;99.90
24103;DHT22;12278;53.058;9.028;2023-08-31T03:42:40;11.20;99.90
24103;DHT22;12278;53.058;9.028;2023-08-31T03:46:42;11.00;99.90
24103;DHT22;12278;53.058;9.028;2023-08-31T03:50:42;11.00;99.90
24103;DHT22;12278;53.058;9.028;2023-08-31T03:54:43;11.00;99.90
24103;DHT22;12278;53.058;9.028;2023-08-31T03:58:44;10.90;99.90
24103;DHT22;12278;53.058;9.028;2023-08-31T04:02:44;11.00;99.90
24103;DHT22;12278;53.058;9.028;2023-08-31T04:06:45;11.00;99.90
24103;DHT22;12278;53.058;9.028;2023-08-31T04:10:46;11.00;99.90
24103;DHT22;12278;53.058;9.028;2023-08-31T04:14:46;11.00;99.90
24103;DHT22;12278;53.058;9.028;2023-08-31T04:18:47;11.00;99.90
24103;DHT22;12278;53.058;9.028;2023-08-31T04:22:51;10.90;99.90
24103;DHT22;12278;53.058;9.028;2023-08-31T04:26:52;11.00;99.90
24103;DHT22;12278;53.058;9.028;2023-08-31T04:30:52;11.00;99.90
24103;DHT22;12278;53.058;9.028;2023-08-31T04:34:53;11.10;99.90
24103;DHT22;12278;53.058;9.028;2023-08-31T04:38:55;11.00;99.90
24103;DHT22;12278;53.058;9.028;2023-08-31T04:42:56;11.00;99.90
24103;DHT22;12278;53.058;9.028;2023-08-31T04:46:56;10.90;99.90
24103;DHT22;12278;53.058;9.028;2023-08-31T04:50:57;10.90;99.90
24103;DHT22;12278;53.058;9.028;2023-08-31T04:54:59;10.90;99.90
24103;DHT22;12278;53.058;9.028;2023-08-31T04:59:00;11.00;99.90
24103;DHT22;12278;53.058;9.028;2023-08-31T05:03:01;10.90;99.90
24103;DHT22;12278;53.058;9.028;2023-08-31T05:07:03;11.00;99.90
24103;DHT22;12278;53.058;9.028;2023-08-31T05:11:04;11.00;99.90
24103;DHT22;12278;53.058;9.028;2023-08-31T05:15:05;11.00;99.90
24103;DHT22;12278;53.058;9.028;2023-08-31T05:19:06;11.20;99.90
24103;DHT22;12278;53.058;9.028;2023-08-31T05:23:06;11.20;99.90
24103;DHT22;12278;53.058;9.028;2023-08-31T05:27:07;11.50;99.90
24103;DHT22;12278;53.058;9.028;2023-08-31T05:31:08;11.50;99.90
24103;DHT22;12278;53.058;9.028;2023-08-31T05:35:08;11.60;99.90
24103;DHT22;12278;53.058;9.028;2023-08-31T05:39:09;11.50;99.90
24103;DHT22;12278;53.058;9.028;2023-08-31T05:43:10;11.60;99.90
24103;DHT22;12278;53.058;9.028;2023-08-31T05:47:10;11.70;99.90
24103;DHT22;12278;53.058;9.028;2023-08-31T05:51:11;11.70;99.90
24103;DHT22;12278;53.058;9.028;2023-08-31T05:55:11;11.80;99.90
24103;DHT22;12278;53.058;9.028;2023-08-31T05:59:12;11.90;99.90
24103;DHT22;12278;53.058;9.028;2023-08-31T06:03:13;11.90;99.90
24103;DHT22;12278;53.058;9.028;2023-08-31T06:07:13;12.10;99.90
24103;DHT22;12278;53.058;9.028;2023-08-31T06:11:14;12.00;99.90
24103;DHT22;12278;53.058;9.028;2023-08-31T06:15:16;12.20;99.90
24103;DHT22;12278;53.058;9.028;2023-08-31T06:19:16;12.40;99.90
24103;DHT22;12278;53.058;9.028;2023-08-31T06:23:17;12.40;99.90
24103;DHT22;12278;53.058;9.028;2023-08-31T06:27:18;12.50;99.90
24103;DHT22;12278;53.058;9.028;2023-08-31T06:31:19;12.50;99.90
24103;DHT22;12278;53.058;9.028;2023-08-31T06:35:19;12.50;99.90
24103;DHT22;12278;53.058;9.028;2023-08-31T06:39:20;12.50;99.90
24103;DHT22;12278;53.058;9.028;2023-08-31T06:43:21;12.70;99.90
24103;DHT22;12278;53.058;9.028;2023-08-31T06:47:21;12.50;99.90
24103;DHT22;12278;53.058;9.028;2023-08-31T06:51:22;12.70;99.90
24103;DHT22;12278;53.058;9.028;2023-08-31T06:55:22;12.90;99.90
24103;DHT22;12278;53.058;9.028;2023-08-31T06:59:24;12.90;99.90
24103;DHT22;12278;53.058;9.028;2023-08-31T07:03:24;13.40;99.90
24103;DHT22;12278;53.058;9.028;2023-08-31T07:07:25;13.80;99.90
24103;DHT22;12278;53.058;9.028;2023-08-31T07:11:26;13.70;99.90
24103;DHT22;12278;53.058;9.028;2023-08-31T07:15:28;13.60;99.90
24103;DHT22;12278;53.058;9.028;2023-08-31T07:19:28;13.30;99.90
24103;DHT22;12278;53.058;9.028;2023-08-31T07:23:29;13.10;99.90
24103;DHT22;12278;53.058;9.028;2023-08-31T07:27:29;13.00;99.90
24103;DHT22;12278;53.058;9.028;2023-08-31T07:31:31;12.80;99.90
24103;DHT22;12278;53.058;9.028;2023-08-31T07:35:32;12.80;99.90
24103;DHT22;12278;53.058;9.028;2023-08-31T07:39:33;12.80;99.90
24103;DHT22;12278;53.058;9.028;2023-08-31T07:43:33;12.80;99.90
24103;DHT22;12278;53.058;9.028;2023-08-31T07:47:34;12.90;99.90
24103;DHT22;12278;53.058;9.028;2023-08-31T07:51:35;12.80;99.90
24103;DHT22;12278;53.058;9.028;2023-08-31T07:55:35;12.80;99.90
24103;DHT22;12278;53.058;9.028;2023-08-31T07:59:36;12.80;99.90
24103;DHT22;12278;53.058;9.028;2023-08-31T08:03:39;12.80;99.90
24103;DHT22;12278;53.058;9.028;2023-08-31T08:07:40;12.80;99.90
24103;DHT22;12278;53.058;9.028;2023-08-31T08:11:42;12.80;99.90
24103;DHT22;12278;53.058;9.028;2023-08-31T08:15:43;12.90;99.90
24103;DHT22;12278;53.058;9.028;2023-08-31T08:19:45;13.00;99.90
24103;DHT22;12278;53.058;9.028;2023-08-31T08:23:46;13.20;99.90
24103;DHT22;12278;53.058;9.028;2023-08-31T08:27:47;13.60;99.90
24103;DHT22;12278;53.058;9.028;2023-08-31T08:31:48;13.60;99.90
24103;DHT22;12278;53.058;9.028;2023-08-31T08:35:48;13.50;99.90
24103;DHT22;12278;53.058;9.028;2023-08-31T08:39:49;13.50;99.90
24103;DHT22;12278;53.058;9.028;2023-08-31T08:43:51;13.40;99.90
24103;DHT22;12278;53.058;9.028;2023-08-31T08:47:52;13.40;99.90
24103;DHT22;12278;53.058;9.028;2023-08-31T08:51:53;13.40;99.90
24103;DHT22;12278;53.058;9.028;2023-08-31T08:55:54;13.40;99.90
24103;DHT22;12278;53.058;9.028;2023-08-31T08:59:54;13.40;99.90
24103;DHT22;12278;53.058;9.028;2023-08-31T09:03:56;13.30;99.90
24103;DHT22;12278;53.058;9.028;2023-08-31T09:08:09;13.40;99.90
24103;DHT22;12278;53.058;9.028;2023-08-31T09:12:14;13.40;99.90
24103;DHT22;12278;53.058;9.028;2023-08-31T09:16:25;13.40;99.90
24103;DHT22;12278;53.058;9.028;2023-08-31T09:20:26;13.70;99.90
24103;DHT22;12278;53.058;9.028;2023-08-31T09:24:27;13.90;99.90
24103;DHT22;12278;53.058;9.028;2023-08-31T09:28:28;14.10;99.90
24103;DHT22;12278;53.058;9.028;2023-08-31T09:32:29;14.30;99.90
24103;DHT22;12278;53.058;9.028;2023-08-31T09:36:30;14.50;99.90
24103;DHT22;12278;53.058;9.028;2023-08-31T09:40:31;14.60;99.90
24103;DHT22;12278;53.058;9.028;2023-08-31T09:44:32;14.80;99.90
24103;DHT22;12278;53.058;9.028;2023-08-31T09:48:33;14.90;99.90
24103;DHT22;12278;53.058;9.028;2023-08-31T09:52:34;15.30;99.90
24103;DHT22;12278;53.058;9.028;2023-08-31T09:56:36;15.20;99.90
24103;DHT22;12278;53.058;9.028;2023-08-31T10:00:37;15.70;99.90
24103;DHT22;12278;53.058;9.028;2023-08-31T10:04:38;16.40;99.90
24103;DHT22;12278;53.058;9.028;2023-08-31T10:08:40;16.50;99.90
24103;DHT22;12278;53.058;9.028;2023-08-31T10:12:42;16.50;99.90
24103;DHT22;12278;53.058;9.028;2023-08-31T10:16:45;16.20;99.90
24103;DHT22;12278;53.058;9.028;2023-08-31T10:20:47;16.30;99.90
24103;DHT22;12278;53.058;9.028;2023-08-31T10:25:01;17.00;99.90
24103;DHT22;12278;53.058;9.028;2023-08-31T10:29:04;18.30;99.90
24103;DHT22;12278;53.058;9.028;2023-08-31T10:37:20;18.50;99.90
24103;DHT22;12278;53.058;9.028;2023-08-31T10:41:22;18.30;99.90
24103;DHT22;12278;53.058;9.028;2023-08-31T10:45:23;18.50;99.90
24103;DHT22;12278;53.058;9.028;2023-08-31T10:49:24;18.30;99.90
24103;DHT22;12278;53.058;9.028;2023-08-31T10:53:28;18.40;99.90
24103;DHT22;12278;53.058;9.028;2023-08-31T10:57:30;18.70;99.90
24103;DHT22;12278;53.058;9.028;2023-08-31T11:01:54;18.70;99.90
24103;DHT22;12278;53.058;9.028;2023-08-31T11:05:55;19.50;99.90
24103;DHT22;12278;53.058;9.028;2023-08-31T11:10:14;19.50;99.90
24103;DHT22;12278;53.058;9.028;2023-08-31T11:14:15;18.90;99.90
24103;DHT22;12278;53.058;9.028;2023-08-31T11:18:16;18.60;99.90
24103;DHT22;12278;53.058;9.028;2023-08-31T11:22:20;18.00;99.90
24103;DHT22;12278;53.058;9.028;2023-08-31T11:26:21;17.70;99.90
24103;DHT22;12278;53.058;9.028;2023-08-31T11:30:22;17.60;99.90
24103;DHT22;12278;53.058;9.028;2023-08-31T11:34:23;17.30;99.90
24103;DHT22;12278;53.058;9.028;2023-08-31T11:38:24;17.80;99.90
24103;DHT22;12278;53.058;9.028;2023-08-31T11:42:25;17.60;99.90
24103;DHT22;12278;53.058;9.028;2023-08-31T11:46:25;17.70;99.90
24103;DHT22;12278;53.058;9.028;2023-08-31T11:50:27;17.60;99.90
24103;DHT22;12278;53.058;9.028;2023-08-31T11:54:28;17.40;99.90
24103;DHT22;12278;53.058;9.028;2023-08-31T11:58:29;17.10;99.90
24103;DHT22;12278;53.058;9.028;2023-08-31T12:02:35;16.70;99.90
24103;DHT22;12278;53.058;9.028;2023-08-31T12:06:36;16.70;99.90
24103;DHT22;12278;53.058;9.028;2023-08-31T12:10:40;16.50;99.90
24103;DHT22;12278;53.058;9.028;2023-08-31T12:14:43;16.20;99.90
24103;DHT22;12278;53.058;9.028;2023-08-31T12:18:44;15.90;99.90
24103;DHT22;12278;53.058;9.028;2023-08-31T12:22:46;15.50;99.90
24103;DHT22;12278;53.058;9.028;2023-08-31T12:26:46;15.30;99.90
24103;DHT22;12278;53.058;9.028;2023-08-31T12:30:52;14.90;99.90
24103;DHT22;12278;53.058;9.028;2023-08-31T12:34:52;14.40;99.90
24103;DHT22;12278;53.058;9.028;2023-08-31T12:38:53;14.30;99.90
24103;DHT22;12278;53.058;9.028;2023-08-31T12:42:54;14.10;99.90
24103;DHT22;12278;53.058;9.028;2023-08-31T12:46:54;13.90;99.90
24103;DHT22;12278;53.058;9.028;2023-08-31T12:50:55;14.10;99.90
24103;DHT22;12278;53.058;9.028;2023-08-31T12:54:56;14.30;99.90
24103;DHT22;12278;53.058;9.028;2023-08-31T12:58:56;14.40;99.90
24103;DHT22;12278;53.058;9.028;2023-08-31T13:02:57;14.00;99.90
24103;DHT22;12278;53.058;9.028;2023-08-31T13:06:57;14.00;99.90
24103;DHT22;12278;53.058;9.028;2023-08-31T13:10:58;14.00;99.90
24103;DHT22;12278;53.058;9.028;2023-08-31T13:14:59;13.90;99.90
24103;DHT22;12278;53.058;9.028;2023-08-31T13:19:00;14.00;99.90
24103;DHT22;12278;53.058;9.028;2023-08-31T13:23:01;14.30;99.90
24103;DHT22;12278;53.058;9.028;2023-08-31T13:27:01;14.60;99.90
24103;DHT22;12278;53.058;9.028;2023-08-31T13:31:03;15.40;99.90
24103;DHT22;12278;53.058;9.028;2023-08-31T13:35:04;16.10;99.90
24103;DHT22;12278;53.058;9.028;2023-08-31T13:39:07;17.20;99.90
24103;DHT22;12278;53.058;9.028;2023-08-31T13:43:08;18.40;99.90
24103;DHT22;12278;53.058;9.028;2023-08-31T13:47:09;19.60;99.90
24103;DHT22;12278;53.058;9.028;2023-08-31T13:51:09;21.40;99.90
24103;DHT22;12278;53.058;9.028;2023-08-31T13:55:10;22.00;99.90
24103;DHT22;12278;53.058;9.028;2023-08-31T13:59:11;22.20;99.90
24103;DHT22;12278;53.058;9.028;2023-08-31T14:03:12;21.00;99.90
24103;DHT22;12278;53.058;9.028;2023-08-31T14:07:12;18.80;99.90
24103;DHT22;12278;53.058;9.028;2023-08-31T14:11:14;17.70;99.90
24103;DHT22;12278;53.058;9.028;2023-08-31T14:15:14;16.90;99.90
24103;DHT22;12278;53.058;9.028;2023-08-31T14:19:15;16.40;99.90
24103;DHT22;12278;53.058;9.028;2023-08-31T14:23:16;15.80;99.90
24103;DHT22;12278;53.058;9.028;2023-08-31T14:27:16;15.60;99.90
24103;DHT22;12278;53.058;9.028;2023-08-31T14:31:18;15.50;99.90
24103;DHT22;12278;53.058;9.028;2023-08-31T14:35:18;15.40;99.90
24103;DHT22;12278;53.058;9.028;2023-08-31T14:39:19;15.10;99.90
24103;DHT22;12278;53.058;9.028;2023-08-31T14:43:20;15.20;99.90
24103;DHT22;12278;53.058;9.028;2023-08-31T14:47:20;15.40;99.90
24103;DHT22;12278;53.058;9.028;2023-08-31T14:51:21;16.60;99.90
24103;DHT22;12278;53.058;9.028;2023-08-31T14:55:22;17.50;99.90
24103;DHT22;12278;53.058;9.028;2023-08-31T14:59:22;16.60;99.90
24103;DHT22;12278;53.058;9.028;2023-08-31T15:03:23;15.70;99.90
24103;DHT22;12278;53.058;9.028;2023-08-31T15:07:24;15.50;99.90
24103;DHT22;12278;53.058;9.028;2023-08-31T15:11:27;15.40;99.90
24103;DHT22;12278;53.058;9.028;2023-08-31T15:15:29;15.20;99.90
24103;DHT22;12278;53.058;9.028;2023-08-31T15:19:30;15.80;99.90
24103;DHT22;12278;53.058;9.028;2023-08-31T15:23:32;17.00;99.90
24103;DHT22;12278;53.058;9.028;2023-08-31T15:27:33;18.20;99.90
24103;DHT22;12278;53.058;9.028;2023-08-31T15:31:34;20.60;99.90
24103;DHT22;12278;53.058;9.028;2023-08-31T15:35:34;22.20;99.90
24103;DHT22;12278;53.058;9.028;2023-08-31T15:39:35;22.50;99.90
24103;DHT22;12278;53.058;9.028;2023-08-31T15:43:36;22.90;99.90
24103;DHT22;12278;53.058;9.028;2023-08-31T15:47:38;21.70;99.90
24103;DHT22;12278;53.058;9.028;2023-08-31T15:51:39;19.90;99.90
24103;DHT22;12278;53.058;9.028;2023-08-31T15:55:40;19.10;99.90
24103;DHT22;12278;53.058;9.028;2023-08-31T15:59:41;17.90;99.90
24103;DHT22;12278;53.058;9.028;2023-08-31T16:03:42;17.80;99.90
24103;DHT22;12278;53.058;9.028;2023-08-31T16:07:43;17.30;99.90
24103;DHT22;12278;53.058;9.028;2023-08-31T16:11:44;16.90;99.90
24103;DHT22;12278;53.058;9.028;2023-08-31T16:15:46;16.50;99.90
24103;DHT22;12278;53.058;9.028;2023-08-31T16:19:49;16.30;99.90
24103;DHT22;12278;53.058;9.028;2023-08-31T16:23:50;16.10;99.90
24103;DHT22;12278;53.058;9.028;2023-08-31T16:27:51;15.90;99.90
24103;DHT22;12278;53.058;9.028;2023-08-31T16:31:51;15.90;99.90
24103;DHT22;12278;53.058;9.028;2023-08-31T16:35:59;15.80;99.90
24103;DHT22;12278;53.058;9.028;2023-08-31T16:40:00;15.80;99.90
24103;DHT22;12278;53.058;9.028;2023-08-31T16:44:00;15.90;99.90
24103;DHT22;12278;53.058;9.028;2023-08-31T16:48:01;15.80;99.90
24103;DHT22;12278;53.058;9.028;2023-08-31T16:52:03;16.20;99.90
24103;DHT22;12278;53.058;9.028;2023-08-31T16:56:05;16.30;99.90
24103;DHT22;12278;53.058;9.028;2023-08-31T17:00:06;16.30;99.90
24103;DHT22;12278;53.058;9.028;2023-08-31T17:04:10;16.10;99.90
24103;DHT22;12278;53.058;9.028;2023-08-31T17:08:10;16.10;99.90
24103;DHT22;12278;53.058;9.028;2023-08-31T17:12:11;15.90;99.90
24103;DHT22;12278;53.058;9.028;2023-08-31T17:16:12;15.80;99.90
24103;DHT22;12278;53.058;9.028;2023-08-31T17:20:13;15.80;99.90
24103;DHT22;12278;53.058;9.028;2023-08-31T17:24:16;15.70;99.90
24103;DHT22;12278;53.058;9.028;2023-08-31T17:28:17;15.60;99.90
24103;DHT22;12278;53.058;9.028;2023-08-31T17:32:18;15.60;99.90
24103;DHT22;12278;53.058;9.028;2023-08-31T17:36:19;15.50;99.90
24103;DHT22;12278;53.058;9.028;2023-08-31T17:40:19;15.50;99.90
24103;DHT22;12278;53.058;9.028;2023-08-31T17:44:20;15.50;99.90
24103;DHT22;12278;53.058;9.028;2023-08-31T17:48:25;15.50;99.90
24103;DHT22;12278;53.058;9.028;2023-08-31T17:52:26;15.50;99.90
24103;DHT22;12278;53.058;9.028;2023-08-31T17:56:27;15.30;99.90
24103;DHT22;12278;53.058;9.028;2023-08-31T18:00:28;15.20;99.90
24103;DHT22;12278;53.058;9.028;2023-08-31T18:04:29;15.00;99.90
24103;DHT22;12278;53.058;9.028;2023-08-31T18:08:31;14.90;99.90
24103;DHT22;12278;53.058;9.028;2023-08-31T18:12:33;14.80;99.90
24103;DHT22;12278;53.058;9.028;2023-08-31T18:16:34;14.80;99.90
24103;DHT22;12278;53.058;9.028;2023-08-31T18:20:36;14.70;99.90
24103;DHT22;12278;53.058;9.028;2023-08-31T18:24:37;14.70;99.90
24103;DHT22;12278;53.058;9.028;2023-08-31T18:28:37;14.50;99.90
24103;DHT22;12278;53.058;9.028;2023-08-31T18:32:38;14.50;99.90
24103;DHT22;12278;53.058;9.028;2023-08-31T18:36:41;14.40;99.90
24103;DHT22;12278;53.058;9.028;2023-08-31T18:40:41;14.20;99.90
24103;DHT22;12278;53.058;9.028;2023-08-31T18:44:42;14.30;99.90
24103;DHT22;12278;53.058;9.028;2023-08-31T18:48:43;14.30;99.90
24103;DHT22;12278;53.058;9.028;2023-08-31T18:52:43;14.20;99.90
24103;DHT22;12278;53.058;9.028;2023-08-31T18:56:44;14.10;99.90
24103;DHT22;12278;53.058;9.028;2023-08-31T19:00:45;14.00;99.90
24103;DHT22;12278;53.058;9.028;2023-08-31T19:04:45;13.90;99.90
24103;DHT22;12278;53.058;9.028;2023-08-31T19:08:52;13.80;99.90
24103;DHT22;12278;53.058;9.028;2023-08-31T19:12:53;13.90;99.90
24103;DHT22;12278;53.058;9.028;2023-08-31T19:16:53;13.70;99.90
24103;DHT22;12278;53.058;9.028;2023-08-31T19:21:00;13.70;99.90
24103;DHT22;12278;53.058;9.028;2023-08-31T19:25:01;13.80;99.90
24103;DHT22;12278;53.058;9.028;2023-08-31T19:29:03;13.60;99.90
24103;DHT22;12278;53.058;9.028;2023-08-31T19:33:04;13.60;99.90
24103;DHT22;12278;53.058;9.028;2023-08-31T19:37:04;13.60;99.90
24103;DHT22;12278;53.058;9.028;2023-08-31T19:41:05;13.50;99.90
24103;DHT22;12278;53.058;9.028;2023-08-31T19:45:06;13.50;99.90
24103;DHT22;12278;53.058;9.028;2023-08-31T19:49:07;13.50;99.90
24103;DHT22;12278;53.058;9.028;2023-08-31T19:53:08;13.40;99.90
24103;DHT22;12278;53.058;9.028;2023-08-31T19:57:09;13.40;99.90
24103;DHT22;12278;53.058;9.028;2023-08-31T20:01:09;13.30;99.90
24103;DHT22;12278;53.058;9.028;2023-08-31T20:05:10;13.30;99.90
24103;DHT22;12278;53.058;9.028;2023-08-31T20:09:11;13.30;99.90
24103;DHT22;12278;53.058;9.028;2023-08-31T20:13:11;13.30;99.90
24103;DHT22;12278;53.058;9.028;2023-08-31T20:17:12;13.20;99.90
24103;DHT22;12278;53.058;9.028;2023-08-31T20:21:13;13.00;99.90
24103;DHT22;12278;53.058;9.028;2023-08-31T20:25:16;13.00;99.90
24103;DHT22;12278;53.058;9.028;2023-08-31T20:29:19;12.90;99.90
24103;DHT22;12278;53.058;9.028;2023-08-31T20:33:20;12.90;99.90
24103;DHT22;12278;53.058;9.028;2023-08-31T20:37:21;12.90;99.90
24103;DHT22;12278;53.058;9.028;2023-08-31T20:41:23;12.90;99.90
24103;DHT22;12278;53.058;9.028;2023-08-31T20:45:24;12.80;99.90
24103;DHT22;12278;53.058;9.028;2023-08-31T20:49:26;12.80;99.90
24103;DHT22;12278;53.058;9.028;2023-08-31T20:53:27;12.70;99.90
24103;DHT22;12278;53.058;9.028;2023-08-31T20:57:28;12.70;99.90
24103;DHT22;12278;53.058;9.028;2023-08-31T21:01:28;12.80;99.90
24103;DHT22;12278;53.058;9.028;2023-08-31T21:05:29;12.70;99.90
24103;DHT22;12278;53.058;9.028;2023-08-31T21:09:29;12.70;99.90
24103;DHT22;12278;53.058;9.028;2023-08-31T21:13:30;12.70;99.90
24103;DHT22;12278;53.058;9.028;2023-08-31T21:17:36;12.60;99.90
24103;DHT22;12278;53.058;9.028;2023-08-31T21:21:38;12.60;99.90
24103;DHT22;12278;53.058;9.028;2023-08-31T21:25:39;12.50;99.90
24103;DHT22;12278;53.058;9.028;2023-08-31T21:29:40;12.50;99.90
24103;DHT22;12278;53.058;9.028;2023-08-31T21:33:41;12.50;99.90
24103;DHT22;12278;53.058;9.028;2023-08-31T21:37:41;12.50;99.90
24103;DHT22;12278;53.058;9.028;2023-08-31T21:41:42;12.40;99.90
24103;DHT22;12278;53.058;9.028;2023-08-31T21:45:43;12.40;99.90
24103;DHT22;12278;53.058;9.028;2023-08-31T21:49:43;12.40;99.90
24103;DHT22;12278;53.058;9.028;2023-08-31T21:53:44;12.40;99.90
24103;DHT22;12278;53.058;9.028;2023-08-31T21:57:45;12.40;99.90
24103;DHT22;12278;53.058;9.028;2023-08-31T22:01:45;12.30;99.90
24103;DHT22;12278;53.058;9.028;2023-08-31T22:05:46;12.20;99.90
24103;DHT22;12278;53.058;9.028;2023-08-31T22:09:47;12.20;99.90
24103;DHT22;12278;53.058;9.028;2023-08-31T22:13:49;12.20;99.90
24103;DHT22;12278;53.058;9.028;2023-08-31T22:17:52;12.20;99.90
24103;DHT22;12278;53.058;9.028;2023-08-31T22:21:53;12.20;99.90
24103;DHT22;12278;53.058;9.028;2023-08-31T22:25:54;12.20;99.90
24103;DHT22;12278;53.058;9.028;2023-08-31T22:29:54;12.20;99.90
24103;DHT22;12278;53.058;9.028;2023-08-31T22:33:55;12.10;99.90
24103;DHT22;12278;53.058;9.028;2023-08-31T22:37:56;12.10;99.90
24103;DHT22;12278;53.058;9.028;2023-08-31T22:41:57;12.00;99.90
24103;DHT22;12278;53.058;9.028;2023-08-31T22:45:58;12.00;99.90
24103;DHT22;12278;53.058;9.028;2023-08-31T22:49:59;11.90;99.90
24103;DHT22;12278;53.058;9.028;2023-08-31T22:54:00;12.00;99.90
24103;DHT22;12278;53.058;9.028;2023-08-31T22:58:00;11.90;99.90
24103;DHT22;12278;53.058;9.028;2023-08-31T23:02:01;11.80;99.90
24103;DHT22;12278;53.058;9.028;2023-08-31T23:06:03;11.80;99.90
24103;DHT22;12278;53.058;9.028;2023-08-31T23:10:05;11.80;99.90
24103;DHT22;12278;53.058;9.028;2023-08-31T23:14:06;11.90;99.90
24103;DHT22;12278;53.058;9.028;2023-08-31T23:18:06;11.90;99.90
24103;DHT22;12278;53.058;9.028;2023-08-31T23:22:07;11.90;99.90
24103;DHT22;12278;53.058;9.028;2023-08-31T23:26:08;11.80;99.90
24103;DHT22;12278;53.058;9.028;2023-08-31T23:30:09;11.80;99.90
24103;DHT22;12278;53.058;9.028;2023-08-31T23:34:09;11.80;99.90
24103;DHT22;12278;53.058;9.028;2023-08-31T23:38:10;11.90;99.90
24103;DHT22;12278;53.058;9.028;2023-08-31T23:42:11;11.90;99.90
24103;DHT22;12278;53.058;9.028;2023-08-31T23:46:11;11.90;99.90
24103;DHT22;12278;53.058;9.028;2023-08-31T23:50:12;11.80;99.90
24103;DHT22;12278;53.058;9.028;2023-08-31T23:54:13;11.90;99.90
24103;DHT22;12278;53.058;9.028;2023-08-31T23:58:13;11.80;99.90
